Nyk Romulus — 9V7644 — position and weather

sailwx.info

Track history (hours):
 
Tides and Currents Weather Stations Pressure Air Temp Water Temp Dewpoint Dewpoint Depression Visibility Wind Speed Wind Dir Waves Ship Positions

Nyk Romulus

Last reported at 2018-Aug-15 02:31 UTC. Time now 2018-Aug-15 02:58 UTC.
Position N 51°20' E 004°17'.

Length 294 m; draft 11.3 m.

Type: Cargo ship. MMSI: 563079000.

Date/timePositionNaut miles runAvg speedWind from/ knotsBaromVisibWave heightAir tempDewpointWater temp
2018-Aug-15 02:31N 51°20' E 004°17'0 0.0
2018-Aug-15 02:00N 51°20' E 004°17'0 0.0
2018-Aug-15 01:30N 51°20' E 004°17'0 0.0
2018-Aug-15 01:00N 51°20' E 004°17'0 0.0
2018-Aug-15 00:31N 51°20' E 004°17'0 0.0
2018-Aug-15 00:01N 51°20' E 004°17'0 0.0
2018-Aug-14 23:30N 51°20' E 004°17'0 0.0
2018-Aug-14 23:01N 51°20' E 004°17'0 0.0
2018-Aug-14 22:29N 51°20' E 004°17'0 0.0
2018-Aug-14 22:01N 51°20' E 004°17'0 0.0
2018-Aug-14 21:29N 51°20' E 004°17'0 0.0
2018-Aug-14 20:59N 51°20' E 004°17'0 0.0
2018-Aug-14 20:30N 51°20' E 004°17'0 0.0
2018-Aug-14 20:01N 51°20' E 004°17'0 0.0
2018-Aug-14 19:30N 51°20' E 004°17'0 0.0
2018-Aug-14 19:00N 51°20' E 004°17'0 0.0
2018-Aug-14 18:31N 51°20' E 004°17'0 0.0
2018-Aug-14 17:58N 51°20' E 004°17'0 0.0
2018-Aug-14 17:31N 51°20' E 004°17'0 0.0
2018-Aug-14 17:01N 51°20' E 004°17'0 0.0
2018-Aug-14 16:31N 51°20' E 004°17'0 0.0
2018-Aug-14 15:58N 51°20' E 004°17'0 0.0
2018-Aug-14 15:29N 51°20' E 004°17'0 0.0
2018-Aug-14 15:00N 51°20' E 004°17'0 0.0
2018-Aug-14 14:30N 51°20' E 004°17'0 0.0
2018-Aug-14 14:00N 51°20' E 004°17'0 0.0
2018-Aug-14 13:29N 51°20' E 004°17'0 0.0
2018-Aug-14 13:01N 51°20' E 004°17'0 0.0
2018-Aug-14 12:30N 51°20' E 004°17'1 1.5
2018-Aug-14 12:00N 51°21' E 004°16'2 4.9
2018-Aug-14 11:30N 51°23' E 004°13'4 7.6
2018-Aug-14 11:00N 51°22' E 004°07'4 7.6
2018-Aug-14 10:30N 51°24' E 004°02'3 5.8
2018-Aug-14 10:00N 51°24' E 003°57'5 9.6
2018-Aug-14 09:30N 51°21' E 003°52'510.9
2018-Aug-14 09:00N 51°23' E 003°43'5 9.1
2018-Aug-14 08:30N 51°26' E 003°39'4 7.4
2018-Aug-14 08:00N 51°25' E 003°33'713.9
2018-Aug-14 07:30N 51°24' E 003°22'714.8
2018-Aug-14 07:00N 51°24' E 003°11'715.0
2018-Aug-14 06:31N 51°25' E 002°59'816.2
2018-Aug-14 06:00N 51°32' E 003°06'815.9
2018-Aug-14 05:30N 51°39' E 003°12'612.7
2018-Aug-14 05:00N 51°45' E 003°15'611.9
2018-Aug-14 04:30N 51°51' E 003°17'918.0
2018-Aug-14 04:00N 51°60' E 003°20'918.0
2018-Aug-14 03:29N 52°09' E 003°22'918.2
2018-Aug-14 03:00N 52°18' E 003°23'918.2
2018-Aug-14 02:30N 52°27' E 003°27'1019.1
2018-Aug-14 02:00N 52°36' E 003°29'918.2
2018-Aug-14 01:30N 52°43' E 003°39'1717.7
2018-Aug-14 00:32N 52°56' E 003°58'217.9
2018-Aug-14 00:26N 52°57' E 004°01'817.8
2018-Aug-14 00:00N 53°02' E 004°10'917.7
2018-Aug-13 23:30N 53°08' E 004°20'917.6
2018-Aug-13 23:00N 53°16' E 004°28'917.3
2018-Aug-13 22:30N 53°24' E 004°34'815.8
2018-Aug-13 22:00N 53°30' E 004°43'815.7
2018-Aug-13 21:30N 53°33' E 004°55'815.6
2018-Aug-13 21:00N 53°36' E 005°07'816.3
2018-Aug-13 20:30N 53°38' E 005°20'816.7
2018-Aug-13 20:00N 53°41' E 005°33'816.0
2018-Aug-13 19:30N 53°44' E 005°46'816.2
2018-Aug-13 19:00N 53°46' E 005°59'6218.1
2018-Aug-13 15:36N 54°01' E 007°41'418.1
2018-Aug-13 15:24N 54°02' E 007°47'718.3
2018-Aug-13 14:59N 54°01' E 007°59'816.5
2018-Aug-13 14:30N 54°00' E 008°13'816.2
2018-Aug-13 14:00N 53°59' E 008°26'816.3
2018-Aug-13 13:30N 53°56' E 008°39'611.4
2018-Aug-13 13:00N 53°52' E 008°45'612.4
2018-Aug-13 12:30N 53°51' E 008°55'612.6
2018-Aug-13 12:00N 53°53' E 009°05'4 7.8
2018-Aug-13 11:30N 53°53' E 009°12'611.4
2018-Aug-13 11:00N 53°50' E 009°21'713.2
2018-Aug-13 10:30N 53°44' E 009°26'612.4
2018-Aug-13 10:01N 53°39' E 009°31'612.8
2018-Aug-13 09:30N 53°34' E 009°38'611.8
2018-Aug-13 09:00N 53°33' E 009°48'5 9.4
2018-Aug-13 08:30N 53°32' E 009°56'2 3.7
2018-Aug-13 07:58N 53°30' E 009°56'0 0.0
2018-Aug-13 07:28N 53°30' E 009°56'0 0.0
2018-Aug-13 06:59N 53°30' E 009°56'0 0.0
2018-Aug-13 06:28N 53°30' E 009°56'0 0.0
2018-Aug-13 05:58N 53°30' E 009°56'0 0.0
2018-Aug-13 05:28N 53°30' E 009°56'0 0.0
2018-Aug-13 04:58N 53°30' E 009°56'0 0.0
2018-Aug-13 04:28N 53°30' E 009°56'0 0.0
2018-Aug-13 03:58N 53°30' E 009°56'0 0.0
2018-Aug-13 03:28N 53°30' E 009°56'0 0.0
2018-Aug-13 02:58N 53°30' E 009°56'0 0.0
2018-Aug-13 02:29N 53°30' E 009°56'0 0.0
2018-Aug-13 01:58N 53°30' E 009°56'0 0.0
2018-Aug-13 01:29N 53°30' E 009°56'0 0.0
2018-Aug-13 00:58N 53°30' E 009°56'0 0.0
2018-Aug-13 00:28N 53°30' E 009°56'0 0.0
2018-Aug-12 23:55N 53°30' E 009°56'0 0.0
2018-Aug-12 23:28N 53°30' E 009°56'0 0.0
2018-Aug-12 22:58N 53°30' E 009°56'0 0.0
2018-Aug-12 22:28N 53°30' E 009°56'0 0.0
2018-Aug-12 21:58N 53°30' E 009°56'0 0.0
2018-Aug-12 21:28N 53°30' E 009°56'0 0.0
2018-Aug-12 20:58N 53°30' E 009°56'0 0.0
2018-Aug-12 20:28N 53°30' E 009°56'0 0.0
2018-Aug-12 19:58N 53°30' E 009°56'0 0.0
2018-Aug-12 19:28N 53°30' E 009°56'0 0.0
2018-Aug-12 18:58N 53°30' E 009°56'0 0.0
2018-Aug-12 18:25N 53°30' E 009°56'0 0.0
2018-Aug-12 17:58N 53°30' E 009°56'0 0.0
2018-Aug-12 17:28N 53°30' E 009°56'0 0.0
2018-Aug-12 16:58N 53°30' E 009°56'0 0.0
2018-Aug-12 16:28N 53°30' E 009°56'0 0.0
2018-Aug-12 15:58N 53°30' E 009°56'0 0.0
2018-Aug-12 15:28N 53°30' E 009°56'0 0.0
2018-Aug-12 14:58N 53°30' E 009°56'0 0.0
2018-Aug-12 14:28N 53°30' E 009°56'0 0.0
2018-Aug-12 13:58N 53°30' E 009°56'0 0.0
2018-Aug-12 13:28N 53°30' E 009°56'0 0.1
2018-Aug-12 12:58N 53°30' E 009°56'0 0.1
2018-Aug-12 12:28N 53°30' E 009°56'0 0.0
2018-Aug-12 11:58N 53°30' E 009°56'0 0.0
2018-Aug-12 11:28N 53°30' E 009°56'0 0.1
2018-Aug-12 11:00N 53°30' E 009°56'1 1.8
2018-Aug-12 10:31N 53°31' E 009°56'3 5.9
2018-Aug-12 10:00N 53°33' E 009°52'4 7.3
2018-Aug-12 09:31N 53°34' E 009°46'5 9.2
2018-Aug-12 09:00N 53°34' E 009°38'510.9
2018-Aug-12 08:30N 53°38' E 009°32'5 9.8
2018-Aug-12 08:01N 53°43' E 009°29'510.5
2018-Aug-12 07:30N 53°47' E 009°23'612.6
2018-Aug-12 07:00N 53°52' E 009°17'611.1
2018-Aug-12 06:31N 53°53' E 009°08'611.0
2018-Aug-12 06:00N 53°51' E 008°59'613.0
2018-Aug-12 05:30N 53°50' E 008°48'611.7
2018-Aug-12 05:00N 53°55' E 008°41'613.0
2018-Aug-12 04:30N 53°58' E 008°32'815.1
2018-Aug-12 04:00N 53°59' E 008°19'611.7
2018-Aug-12 03:30N 53°60' E 008°09'611.0
2018-Aug-12 03:00N 53°59' E 008°00'814.2
2018-Aug-12 02:27N 53°57' E 007°47'714.2
2018-Aug-12 01:59N 53°56' E 007°36'814.3
2018-Aug-12 01:24N 53°55' E 007°22'6715.5
2018-Aug-11 21:03N 53°36' E 005°32'116.5
2018-Aug-11 21:00N 53°36' E 005°31'815.8
2018-Aug-11 20:30N 53°34' E 005°18'613.0
2018-Aug-11 20:00N 53°31' E 005°08'713.0
2018-Aug-11 19:30N 53°29' E 004°58'713.3
2018-Aug-11 19:00N 53°26' E 004°48'612.6
2018-Aug-11 18:30N 53°21' E 004°40'713.3
2018-Aug-11 18:01N 53°15' E 004°36'714.9
2018-Aug-11 17:31N 53°09' E 004°30'815.8
2018-Aug-11 17:00N 53°02' E 004°23'815.6
2018-Aug-11 16:30N 52°55' E 004°17'815.8
2018-Aug-11 16:00N 52°49' E 004°10'1015.9
2018-Aug-11 15:21N 52°40' E 004°01'615.9
2018-Aug-11 15:00N 52°35' E 003°57'815.7
2018-Aug-11 14:30N 52°27' E 003°53'815.9
2018-Aug-11 14:01N 52°19' E 003°52'815.8
2018-Aug-11 13:31N 52°12' E 003°54'815.1
2018-Aug-11 13:00N 52°04' E 003°57'5 9.8
2018-Aug-11 12:30N 52°00' E 004°02'4 7.7
2018-Aug-11 12:00N 51°57' E 004°05'1 2.4
2018-Aug-11 11:30N 51°57' E 004°03'0 0.0
2018-Aug-11 11:00N 51°57' E 004°03'0 0.0
2018-Aug-11 10:30N 51°57' E 004°03'0 0.0
2018-Aug-11 10:00N 51°57' E 004°03'0 0.0
2018-Aug-11 09:30N 51°57' E 004°03'0 0.0
2018-Aug-11 09:00N 51°57' E 004°03'0 0.0
2018-Aug-11 08:30N 51°57' E 004°03'0 0.0
2018-Aug-11 08:00N 51°57' E 004°03'0 0.0
2018-Aug-11 07:30N 51°57' E 004°03'0 0.0
2018-Aug-11 07:00N 51°57' E 004°03'0 0.0
2018-Aug-11 06:30N 51°57' E 004°03'0 0.0
2018-Aug-11 06:00N 51°57' E 004°03'0 0.0
2018-Aug-11 05:30N 51°57' E 004°03'0 0.0
2018-Aug-11 05:00N 51°57' E 004°03'0 0.0
2018-Aug-11 04:30N 51°57' E 004°03'0 0.0
2018-Aug-11 04:00N 51°57' E 004°03'0 0.0
2018-Aug-11 03:30N 51°57' E 004°03'0 0.0
2018-Aug-11 03:00N 51°57' E 004°03'0 0.0
2018-Aug-11 02:30N 51°57' E 004°03'0 0.0
2018-Aug-11 02:00N 51°57' E 004°03'0 0.0
2018-Aug-11 01:30N 51°57' E 004°03'0 0.0
2018-Aug-11 01:00N 51°57' E 004°03'0 0.0
2018-Aug-11 00:30N 51°57' E 004°03'0 0.0
2018-Aug-11 00:00N 51°57' E 004°03'0 0.0
2018-Aug-10 23:30N 51°57' E 004°03'0 0.0
2018-Aug-10 23:00N 51°57' E 004°03'0 0.0
2018-Aug-10 22:30N 51°57' E 004°03'0 0.0
2018-Aug-10 22:00N 51°57' E 004°03'0 0.0
2018-Aug-10 21:30N 51°57' E 004°03'0 0.0
2018-Aug-10 21:00N 51°57' E 004°03'0 0.0
2018-Aug-10 20:30N 51°57' E 004°03'0 0.0
2018-Aug-10 20:00N 51°57' E 004°03'0 0.0
2018-Aug-10 19:30N 51°57' E 004°03'0 0.0
2018-Aug-10 19:00N 51°57' E 004°03'0 0.0
2018-Aug-10 18:30N 51°57' E 004°03'0 0.0
2018-Aug-10 18:00N 51°57' E 004°03'0 0.0
2018-Aug-10 17:30N 51°57' E 004°03'1 1.4
2018-Aug-10 17:00N 51°57' E 004°04'1 1.9
2018-Aug-10 16:30N 51°57' E 004°05'2 3.9
2018-Aug-10 16:00N 51°59' E 004°03'5 9.0
2018-Aug-10 15:30N 52°00' E 003°56'5 9.5
2018-Aug-10 15:00N 52°01' E 003°49'4 8.2
2018-Aug-10 14:31N 52°01' E 003°42'4 8.2
2018-Aug-10 14:01N 52°04' E 003°37'5 9.1
2018-Aug-10 13:31N 52°07' E 003°32'6 6.3
2018-Aug-10 12:30N 52°08' E 003°22'3 6.3
2018-Aug-10 11:59N 52°09' E 003°17'1 2.9
2018-Aug-10 11:29N 52°08' E 003°15'0 0.2
2018-Aug-10 10:52N 52°08' E 003°15'0 0.1
2018-Aug-10 10:28N 52°08' E 003°15'0 0.0
2018-Aug-10 05:37N 52°08' E 003°15'0 0.1
2018-Aug-10 05:16N 52°08' E 003°15'0 0.0
2018-Aug-10 04:49N 52°08' E 003°15'0 0.1
2018-Aug-10 03:40N 52°08' E 003°15'0 0.0
2018-Aug-10 03:13N 52°08' E 003°15'0 0.0
2018-Aug-10 02:52N 52°08' E 003°15'0 0.0
2018-Aug-10 01:40N 52°08' E 003°15'0 0.0
2018-Aug-10 01:07N 52°08' E 003°15'0 0.1
2018-Aug-10 00:46N 52°08' E 003°15'0 0.1
2018-Aug-09 23:19N 52°08' E 003°15'0 0.2
2018-Aug-09 22:52N 52°08' E 003°15'0 0.3
2018-Aug-09 22:29N 52°08' E 003°15'1 2.4
2018-Aug-09 22:00N 52°07' E 003°15'1 1.8
2018-Aug-09 21:26N 52°08' E 003°15'1 0.9
2018-Aug-09 20:31N 52°07' E 003°15'0 4.1
2018-Aug-09 20:30N 52°07' E 003°15'1 1.7
2018-Aug-09 20:00N 52°07' E 003°14'0 0.7
2018-Aug-09 19:29N 52°08' E 003°14'1 2.0
2018-Aug-09 18:59N 52°07' E 003°14'0 0.5
2018-Aug-09 18:30N 52°07' E 003°14'2 4.2
2018-Aug-09 17:57N 52°06' E 003°10'2 4.4
2018-Aug-09 17:28N 52°05' E 003°07'3 6.2
2018-Aug-09 16:59N 52°04' E 003°03'3 5.8
2018-Aug-09 16:25N 52°01' E 003°01'27 5.9
2018-Aug-09 11:50N 51°41' E 002°30'2 6.7
2018-Aug-09 11:28N 51°40' E 002°27'3 6.8
2018-Aug-09 11:00N 51°37' E 002°24'3 6.9
2018-Aug-09 10:30N 51°34' E 002°21'3 6.8
2018-Aug-09 10:00N 51°32' E 002°18'4 8.8
2018-Aug-09 09:30N 51°28' E 002°13'714.4
2018-Aug-09 09:00N 51°23' E 002°05'714.5
2018-Aug-09 08:30N 51°18' E 001°57'714.4
2018-Aug-09 08:00N 51°13' E 001°49'714.0
2018-Aug-09 07:31N 51°07' E 001°42'713.2
2018-Aug-09 07:01N 51°02' E 001°36'713.1
2018-Aug-09 06:31N 50°57' E 001°28'713.0
2018-Aug-09 06:00N 50°51' E 001°24'612.5
2018-Aug-09 05:31N 50°45' E 001°22'612.6
2018-Aug-09 05:00N 50°40' E 001°16'713.2
2018-Aug-09 04:30N 50°36' E 001°08'713.4
2018-Aug-09 04:00N 50°32' E 000°60'713.4
2018-Aug-09 03:30N 50°28' E 000°51'713.3
2018-Aug-09 03:01N 50°23' E 000°44'713.3
2018-Aug-09 02:31N 50°18' E 000°37'913.2
2018-Aug-09 01:49N 50°11' E 000°28'813.0
2018-Aug-09 01:14N 50°05' E 000°21'312.9
2018-Aug-09 00:59N 50°02' E 000°18'612.8
2018-Aug-09 00:30N 49°57' E 000°13'612.9
2018-Aug-09 00:00N 49°52' E 000°07'713.0
2018-Aug-08 23:30N 49°47' E 000°01'713.4
2018-Aug-08 23:00N 49°41' W 000°04'714.2
2018-Aug-08 22:30N 49°34' W 000°03'510.0
2018-Aug-08 22:00N 49°30' E 000°02'5 9.3
2018-Aug-08 21:31N 49°28' E 000°09'1 0.9
2018-Aug-08 20:58N 49°28' E 000°09'0 0.0
2018-Aug-08 20:28N 49°28' E 000°09'0 0.0
2018-Aug-08 19:58N 49°28' E 000°09'0 0.0
2018-Aug-08 19:28N 49°28' E 000°09'0 0.0
2018-Aug-08 18:58N 49°28' E 000°09'0 0.0
2018-Aug-08 18:28N 49°28' E 000°09'0 0.0
2018-Aug-08 17:58N 49°28' E 000°09'0 0.0
2018-Aug-08 17:28N 49°28' E 000°09'0 0.0
2018-Aug-08 16:58N 49°28' E 000°09'0 0.0
2018-Aug-08 16:28N 49°28' E 000°09'0 0.0
2018-Aug-08 15:58N 49°28' E 000°09'0 0.0
2018-Aug-08 15:28N 49°28' E 000°09'0 0.0
2018-Aug-08 14:58N 49°28' E 000°09'0 0.0
2018-Aug-08 14:28N 49°28' E 000°09'0 0.0
2018-Aug-08 13:58N 49°28' E 000°09'0 0.0
2018-Aug-08 13:28N 49°28' E 000°09'0 0.0
2018-Aug-08 12:58N 49°28' E 000°09'0 0.0
2018-Aug-08 12:28N 49°28' E 000°09'0 0.0
2018-Aug-08 11:58N 49°28' E 000°09'0 0.0
2018-Aug-08 11:28N 49°28' E 000°09'0 0.0
2018-Aug-08 10:58N 49°28' E 000°09'0 0.0
2018-Aug-08 10:28N 49°28' E 000°09'0 0.0
2018-Aug-08 09:58N 49°28' E 000°09'0 0.0
2018-Aug-08 09:28N 49°28' E 000°09'0 0.0
2018-Aug-08 08:58N 49°28' E 000°09'0 0.0
2018-Aug-08 08:28N 49°28' E 000°09'0 0.0
2018-Aug-08 07:58N 49°28' E 000°09'0 0.0
2018-Aug-08 07:28N 49°28' E 000°09'0 0.0
2018-Aug-08 06:58N 49°28' E 000°09'0 0.0
2018-Aug-08 06:28N 49°28' E 000°09'0 0.0
2018-Aug-08 05:58N 49°28' E 000°09'0 0.0
2018-Aug-08 05:28N 49°28' E 000°09'0 0.0
2018-Aug-08 04:58N 49°28' E 000°09'0 0.0
2018-Aug-08 04:28N 49°28' E 000°09'0 0.0
2018-Aug-08 03:58N 49°28' E 000°09'0 0.0
2018-Aug-08 03:28N 49°28' E 000°09'0 0.0
2018-Aug-08 02:58N 49°28' E 000°09'0 0.0
2018-Aug-08 02:28N 49°28' E 000°09'0 0.0
2018-Aug-08 01:58N 49°28' E 000°09'0 0.0
2018-Aug-08 01:28N 49°28' E 000°09'0 0.0
2018-Aug-08 00:58N 49°28' E 000°09'0 0.0
2018-Aug-08 00:28N 49°28' E 000°09'0 0.0
2018-Aug-07 23:58N 49°28' E 000°09'0 0.0
2018-Aug-07 23:28N 49°28' E 000°09'0 0.0
2018-Aug-07 22:58N 49°28' E 000°09'0 0.0
2018-Aug-07 22:28N 49°28' E 000°09'0 0.0
2018-Aug-07 21:58N 49°28' E 000°09'0 0.0
2018-Aug-07 21:28N 49°28' E 000°09'0 0.0
2018-Aug-07 20:58N 49°28' E 000°09'0 0.0
2018-Aug-07 20:28N 49°28' E 000°09'0 0.0
2018-Aug-07 19:58N 49°28' E 000°09'0 0.1
2018-Aug-07 19:30N 49°28' E 000°09'1 2.4
2018-Aug-07 19:00N 49°28' E 000°08'611.1
2018-Aug-07 18:30N 49°30' W 000°00'510.8
2018-Aug-07 18:00N 49°32' W 000°08'510.4
2018-Aug-07 17:30N 49°34' W 000°16'713.6
2018-Aug-07 17:00N 49°40' W 000°22'917.4
2018-Aug-07 16:31N 49°48' W 000°26'917.6
2018-Aug-07 16:01N 49°56' W 000°31'917.2
2018-Aug-07 15:31N 50°04' W 000°36'714.9
2018-Aug-07 15:00N 50°11' W 000°41'715.0
2018-Aug-07 14:31N 50°18' W 000°45'714.6
2018-Aug-07 14:01N 50°24' W 000°50'714.6
2018-Aug-07 13:30N 50°31' W 000°54'714.0
2018-Aug-07 13:01N 50°38' W 000°55'510.8
2018-Aug-07 12:30N 50°43' W 000°60'713.3
2018-Aug-07 12:00N 50°46' W 001°09'612.5
2018-Aug-07 11:30N 50°47' W 001°19'4 8.2
2018-Aug-07 11:00N 50°51' W 001°20'5 9.3
2018-Aug-07 10:31N 50°54' W 001°25'1 2.7
2018-Aug-07 10:00N 50°54' W 001°27'0 0.4
2018-Aug-07 09:10N 50°55' W 001°28'0 0.0
2018-Aug-07 08:04N 50°55' W 001°28'0 0.1
2018-Aug-07 07:58N 50°55' W 001°28'0 0.0
2018-Aug-07 07:28N 50°55' W 001°28'0 0.0
2018-Aug-07 06:58N 50°55' W 001°28'0 0.0
2018-Aug-07 06:25N 50°55' W 001°28'0 0.0
2018-Aug-07 05:01N 50°55' W 001°28'0 0.0
2018-Aug-07 04:37N 50°55' W 001°28'0 0.0
2018-Aug-07 04:28N 50°55' W 001°28'0 0.0
2018-Aug-07 03:58N 50°55' W 001°28'0 0.0
2018-Aug-07 03:19N 50°55' W 001°28'0 0.0
2018-Aug-07 02:58N 50°55' W 001°28'0 0.0
2018-Aug-07 02:25N 50°55' W 001°28'0 0.0
2018-Aug-07 01:55N 50°55' W 001°28'0 0.0
2018-Aug-07 00:49N 50°55' W 001°28'0 0.0
2018-Aug-07 00:07N 50°55' W 001°28'0 0.0
2018-Aug-06 23:49N 50°55' W 001°28'0 0.0
2018-Aug-06 23:28N 50°55' W 001°28'0 0.0
2018-Aug-06 22:58N 50°55' W 001°28'0 0.0
2018-Aug-06 22:28N 50°55' W 001°28'0 0.0
2018-Aug-06 21:40N 50°55' W 001°28'0 0.0
2018-Aug-06 21:28N 50°55' W 001°28'0 0.0
2018-Aug-06 21:00N 50°55' W 001°28'2 3.8
2018-Aug-06 20:31N 50°54' W 001°25'3 6.7
2018-Aug-06 20:00N 50°51' W 001°21'4 8.1
2018-Aug-06 19:30N 50°48' W 001°18'510.3
2018-Aug-06 19:00N 50°46' W 001°11'816.8
2018-Aug-06 18:31N 50°42' W 000°58'5 9.6
2018-Aug-06 18:00N 50°38' W 000°56'510.3
2018-Aug-06 17:30N 50°33' W 001°00'612.2
2018-Aug-06 17:00N 50°29' W 001°06'510.8
2018-Aug-06 16:30N 50°26' W 001°14'1 1.7
2018-Aug-06 16:00N 50°26' W 001°15'1 2.1
2018-Aug-06 15:30N 50°27' W 001°17'1 2.5
2018-Aug-06 15:00N 50°27' W 001°19'1 2.6
2018-Aug-06 14:30N 50°27' W 001°21'1 2.5
2018-Aug-06 14:01N 50°26' W 001°23'1 2.9
2018-Aug-06 13:30N 50°26' W 001°25'2 4.0
2018-Aug-06 13:00N 50°25' W 001°28'4 7.6
2018-Aug-06 12:30N 50°24' W 001°34'4 7.4
2018-Aug-06 12:00N 50°24' W 001°39'4 7.0
2018-Aug-06 11:30N 50°23' W 001°45'4 7.9
2018-Aug-06 11:00N 50°22' W 001°51'713.6
2018-Aug-06 10:30N 50°20' W 002°01'815.6
2018-Aug-06 10:00N 50°18' W 002°13'816.0
2018-Aug-06 09:30N 50°16' W 002°25'816.0
2018-Aug-06 09:01N 50°14' W 002°37'816.0
2018-Aug-06 08:31N 50°12' W 002°49'816.0
2018-Aug-06 08:01N 50°09' W 003°01'816.2
2018-Aug-06 07:31N 50°07' W 003°13'816.2
2018-Aug-06 07:00N 50°05' W 003°25'815.6
2018-Aug-06 06:31N 50°03' W 003°37'815.2
2018-Aug-06 06:00N 50°01' W 003°48'815.5
2018-Aug-06 05:31N 49°59' W 004°00'815.5
2018-Aug-06 05:00N 49°57' W 004°12'815.6
2018-Aug-06 04:31N 49°55' W 004°23'815.6
2018-Aug-06 04:01N 49°53' W 004°35'815.4
2018-Aug-06 03:30N 49°51' W 004°47'815.4
2018-Aug-06 03:00N 49°48' W 004°58'815.4
2018-Aug-06 02:31N 49°47' W 005°09'815.8
2018-Aug-06 02:00N 49°44' W 005°21'815.9
2018-Aug-06 01:30N 49°43' W 005°33'815.9
2018-Aug-06 01:01N 49°41' W 005°45'915.9
2018-Aug-06 00:28N 49°38' W 005°58'715.8
2018-Aug-06 00:01N 49°38' W 006°09'816.2
2018-Aug-05 23:30N 49°38' W 006°22'1016.0
2018-Aug-05 22:53N 49°38' W 006°37'616.5
2018-Aug-05 22:31N 49°38' W 006°46'916.7
2018-Aug-05 21:57N 49°39' W 007°01'1216.7
2018-Aug-05 21:15N 49°40' W 007°19'716.8
2018-Aug-05 20:49N 49°41' W 007°30'7117.0
2018-Aug-05 16:38N 49°46' W 009°19'217.5
2018-Aug-05 16:30N 49°46' W 009°23'816.4
2018-Aug-05 16:00N 49°47' W 009°36'917.4
2018-Aug-05 15:29N 49°47' W 009°49'1019.8
2018-Aug-05 15:00N 49°48' W 010°05'1619.4
2018-Aug-05 14:10N 49°49' W 010°30'1619.5
2018-Aug-05 13:20N 49°50' W 010°55'  
Track history (hours):
 
Tides and Currents Weather Stations Pressure Air Temp Water Temp Dewpoint Dewpoint Depression Visibility Wind Speed Wind Dir Waves Ship Positions

Nyk Romulus

Last reported at 2018-Aug-15 02:31 UTC. Time now 2018-Aug-15 02:58 UTC.
Position N 51°20' E 004°17'.

Length 294 m; draft 11.3 m.

Type: Cargo ship. MMSI: 563079000.

Date/timePositionNaut miles runAvg speedWind from/ knotsBaromVisibWave heightAir tempDewpointWater temp
2018-Aug-15 02:31N 51°20' E 004°17'0 0.0
2018-Aug-15 02:00N 51°20' E 004°17'0 0.0
2018-Aug-15 01:30N 51°20' E 004°17'0 0.0
2018-Aug-15 01:00N 51°20' E 004°17'0 0.0
2018-Aug-15 00:31N 51°20' E 004°17'0 0.0
2018-Aug-15 00:01N 51°20' E 004°17'0 0.0
2018-Aug-14 23:30N 51°20' E 004°17'0 0.0
2018-Aug-14 23:01N 51°20' E 004°17'0 0.0
2018-Aug-14 22:29N 51°20' E 004°17'0 0.0
2018-Aug-14 22:01N 51°20' E 004°17'0 0.0
2018-Aug-14 21:29N 51°20' E 004°17'0 0.0
2018-Aug-14 20:59N 51°20' E 004°17'0 0.0
2018-Aug-14 20:30N 51°20' E 004°17'0 0.0
2018-Aug-14 20:01N 51°20' E 004°17'0 0.0
2018-Aug-14 19:30N 51°20' E 004°17'0 0.0
2018-Aug-14 19:00N 51°20' E 004°17'0 0.0
2018-Aug-14 18:31N 51°20' E 004°17'0 0.0
2018-Aug-14 17:58N 51°20' E 004°17'0 0.0
2018-Aug-14 17:31N 51°20' E 004°17'0 0.0
2018-Aug-14 17:01N 51°20' E 004°17'0 0.0
2018-Aug-14 16:31N 51°20' E 004°17'0 0.0
2018-Aug-14 15:58N 51°20' E 004°17'0 0.0
2018-Aug-14 15:29N 51°20' E 004°17'0 0.0
2018-Aug-14 15:00N 51°20' E 004°17'0 0.0
2018-Aug-14 14:30N 51°20' E 004°17'0 0.0
2018-Aug-14 14:00N 51°20' E 004°17'0 0.0
2018-Aug-14 13:29N 51°20' E 004°17'0 0.0
2018-Aug-14 13:01N 51°20' E 004°17'0 0.0
2018-Aug-14 12:30N 51°20' E 004°17'1 1.5
2018-Aug-14 12:00N 51°21' E 004°16'2 4.9
2018-Aug-14 11:30N 51°23' E 004°13'4 7.6
2018-Aug-14 11:00N 51°22' E 004°07'4 7.6
2018-Aug-14 10:30N 51°24' E 004°02'3 5.8
2018-Aug-14 10:00N 51°24' E 003°57'5 9.6
2018-Aug-14 09:30N 51°21' E 003°52'510.9
2018-Aug-14 09:00N 51°23' E 003°43'5 9.1
2018-Aug-14 08:30N 51°26' E 003°39'4 7.4
2018-Aug-14 08:00N 51°25' E 003°33'713.9
2018-Aug-14 07:30N 51°24' E 003°22'714.8
2018-Aug-14 07:00N 51°24' E 003°11'715.0
2018-Aug-14 06:31N 51°25' E 002°59'816.2
2018-Aug-14 06:00N 51°32' E 003°06'815.9
2018-Aug-14 05:30N 51°39' E 003°12'612.7
2018-Aug-14 05:00N 51°45' E 003°15'611.9
2018-Aug-14 04:30N 51°51' E 003°17'918.0
2018-Aug-14 04:00N 51°60' E 003°20'918.0
2018-Aug-14 03:29N 52°09' E 003°22'918.2
2018-Aug-14 03:00N 52°18' E 003°23'918.2
2018-Aug-14 02:30N 52°27' E 003°27'1019.1
2018-Aug-14 02:00N 52°36' E 003°29'918.2
2018-Aug-14 01:30N 52°43' E 003°39'1717.7
2018-Aug-14 00:32N 52°56' E 003°58'217.9
2018-Aug-14 00:26N 52°57' E 004°01'817.8
2018-Aug-14 00:00N 53°02' E 004°10'917.7
2018-Aug-13 23:30N 53°08' E 004°20'917.6
2018-Aug-13 23:00N 53°16' E 004°28'917.3
2018-Aug-13 22:30N 53°24' E 004°34'815.8
2018-Aug-13 22:00N 53°30' E 004°43'815.7
2018-Aug-13 21:30N 53°33' E 004°55'815.6
2018-Aug-13 21:00N 53°36' E 005°07'816.3
2018-Aug-13 20:30N 53°38' E 005°20'816.7
2018-Aug-13 20:00N 53°41' E 005°33'816.0
2018-Aug-13 19:30N 53°44' E 005°46'816.2
2018-Aug-13 19:00N 53°46' E 005°59'6218.1
2018-Aug-13 15:36N 54°01' E 007°41'418.1
2018-Aug-13 15:24N 54°02' E 007°47'718.3
2018-Aug-13 14:59N 54°01' E 007°59'816.5
2018-Aug-13 14:30N 54°00' E 008°13'816.2
2018-Aug-13 14:00N 53°59' E 008°26'816.3
2018-Aug-13 13:30N 53°56' E 008°39'611.4
2018-Aug-13 13:00N 53°52' E 008°45'612.4
2018-Aug-13 12:30N 53°51' E 008°55'612.6
2018-Aug-13 12:00N 53°53' E 009°05'4 7.8
2018-Aug-13 11:30N 53°53' E 009°12'611.4
2018-Aug-13 11:00N 53°50' E 009°21'713.2
2018-Aug-13 10:30N 53°44' E 009°26'612.4
2018-Aug-13 10:01N 53°39' E 009°31'612.8
2018-Aug-13 09:30N 53°34' E 009°38'611.8
2018-Aug-13 09:00N 53°33' E 009°48'5 9.4
2018-Aug-13 08:30N 53°32' E 009°56'2 3.7
2018-Aug-13 07:58N 53°30' E 009°56'0 0.0
2018-Aug-13 07:28N 53°30' E 009°56'0 0.0
2018-Aug-13 06:59N 53°30' E 009°56'0 0.0
2018-Aug-13 06:28N 53°30' E 009°56'0 0.0
2018-Aug-13 05:58N 53°30' E 009°56'0 0.0
2018-Aug-13 05:28N 53°30' E 009°56'0 0.0
2018-Aug-13 04:58N 53°30' E 009°56'0 0.0
2018-Aug-13 04:28N 53°30' E 009°56'0 0.0
2018-Aug-13 03:58N 53°30' E 009°56'0 0.0
2018-Aug-13 03:28N 53°30' E 009°56'0 0.0
2018-Aug-13 02:58N 53°30' E 009°56'0 0.0
2018-Aug-13 02:29N 53°30' E 009°56'0 0.0
2018-Aug-13 01:58N 53°30' E 009°56'0 0.0
2018-Aug-13 01:29N 53°30' E 009°56'0 0.0
2018-Aug-13 00:58N 53°30' E 009°56'0 0.0
2018-Aug-13 00:28N 53°30' E 009°56'0 0.0
2018-Aug-12 23:55N 53°30' E 009°56'0 0.0
2018-Aug-12 23:28N 53°30' E 009°56'0 0.0
2018-Aug-12 22:58N 53°30' E 009°56'0 0.0
2018-Aug-12 22:28N 53°30' E 009°56'0 0.0
2018-Aug-12 21:58N 53°30' E 009°56'0 0.0
2018-Aug-12 21:28N 53°30' E 009°56'0 0.0
2018-Aug-12 20:58N 53°30' E 009°56'0 0.0
2018-Aug-12 20:28N 53°30' E 009°56'0 0.0
2018-Aug-12 19:58N 53°30' E 009°56'0 0.0
2018-Aug-12 19:28N 53°30' E 009°56'0 0.0
2018-Aug-12 18:58N 53°30' E 009°56'0 0.0
2018-Aug-12 18:25N 53°30' E 009°56'0 0.0
2018-Aug-12 17:58N 53°30' E 009°56'0 0.0
2018-Aug-12 17:28N 53°30' E 009°56'0 0.0
2018-Aug-12 16:58N 53°30' E 009°56'0 0.0
2018-Aug-12 16:28N 53°30' E 009°56'0 0.0
2018-Aug-12 15:58N 53°30' E 009°56'0 0.0
2018-Aug-12 15:28N 53°30' E 009°56'0 0.0
2018-Aug-12 14:58N 53°30' E 009°56'0 0.0
2018-Aug-12 14:28N 53°30' E 009°56'0 0.0
2018-Aug-12 13:58N 53°30' E 009°56'0 0.0
2018-Aug-12 13:28N 53°30' E 009°56'0 0.1
2018-Aug-12 12:58N 53°30' E 009°56'0 0.1
2018-Aug-12 12:28N 53°30' E 009°56'0 0.0
2018-Aug-12 11:58N 53°30' E 009°56'0 0.0
2018-Aug-12 11:28N 53°30' E 009°56'0 0.1
2018-Aug-12 11:00N 53°30' E 009°56'1 1.8
2018-Aug-12 10:31N 53°31' E 009°56'3 5.9
2018-Aug-12 10:00N 53°33' E 009°52'4 7.3
2018-Aug-12 09:31N 53°34' E 009°46'5 9.2
2018-Aug-12 09:00N 53°34' E 009°38'510.9
2018-Aug-12 08:30N 53°38' E 009°32'5 9.8
2018-Aug-12 08:01N 53°43' E 009°29'510.5
2018-Aug-12 07:30N 53°47' E 009°23'612.6
2018-Aug-12 07:00N 53°52' E 009°17'611.1
2018-Aug-12 06:31N 53°53' E 009°08'611.0
2018-Aug-12 06:00N 53°51' E 008°59'613.0
2018-Aug-12 05:30N 53°50' E 008°48'611.7
2018-Aug-12 05:00N 53°55' E 008°41'613.0
2018-Aug-12 04:30N 53°58' E 008°32'815.1
2018-Aug-12 04:00N 53°59' E 008°19'611.7
2018-Aug-12 03:30N 53°60' E 008°09'611.0
2018-Aug-12 03:00N 53°59' E 008°00'814.2
2018-Aug-12 02:27N 53°57' E 007°47'714.2
2018-Aug-12 01:59N 53°56' E 007°36'814.3
2018-Aug-12 01:24N 53°55' E 007°22'6715.5
2018-Aug-11 21:03N 53°36' E 005°32'116.5
2018-Aug-11 21:00N 53°36' E 005°31'815.8
2018-Aug-11 20:30N 53°34' E 005°18'613.0
2018-Aug-11 20:00N 53°31' E 005°08'713.0
2018-Aug-11 19:30N 53°29' E 004°58'713.3
2018-Aug-11 19:00N 53°26' E 004°48'612.6
2018-Aug-11 18:30N 53°21' E 004°40'713.3
2018-Aug-11 18:01N 53°15' E 004°36'714.9
2018-Aug-11 17:31N 53°09' E 004°30'815.8
2018-Aug-11 17:00N 53°02' E 004°23'815.6
2018-Aug-11 16:30N 52°55' E 004°17'815.8
2018-Aug-11 16:00N 52°49' E 004°10'1015.9
2018-Aug-11 15:21N 52°40' E 004°01'615.9
2018-Aug-11 15:00N 52°35' E 003°57'815.7
2018-Aug-11 14:30N 52°27' E 003°53'815.9
2018-Aug-11 14:01N 52°19' E 003°52'815.8
2018-Aug-11 13:31N 52°12' E 003°54'815.1
2018-Aug-11 13:00N 52°04' E 003°57'5 9.8
2018-Aug-11 12:30N 52°00' E 004°02'4 7.7
2018-Aug-11 12:00N 51°57' E 004°05'1 2.4
2018-Aug-11 11:30N 51°57' E 004°03'0 0.0
2018-Aug-11 11:00N 51°57' E 004°03'0 0.0
2018-Aug-11 10:30N 51°57' E 004°03'0 0.0
2018-Aug-11 10:00N 51°57' E 004°03'0 0.0
2018-Aug-11 09:30N 51°57' E 004°03'0 0.0
2018-Aug-11 09:00N 51°57' E 004°03'0 0.0
2018-Aug-11 08:30N 51°57' E 004°03'0 0.0
2018-Aug-11 08:00N 51°57' E 004°03'0 0.0
2018-Aug-11 07:30N 51°57' E 004°03'0 0.0
2018-Aug-11 07:00N 51°57' E 004°03'0 0.0
2018-Aug-11 06:30N 51°57' E 004°03'0 0.0
2018-Aug-11 06:00N 51°57' E 004°03'0 0.0
2018-Aug-11 05:30N 51°57' E 004°03'0 0.0
2018-Aug-11 05:00N 51°57' E 004°03'0 0.0
2018-Aug-11 04:30N 51°57' E 004°03'0 0.0
2018-Aug-11 04:00N 51°57' E 004°03'0 0.0
2018-Aug-11 03:30N 51°57' E 004°03'0 0.0
2018-Aug-11 03:00N 51°57' E 004°03'0 0.0
2018-Aug-11 02:30N 51°57' E 004°03'0 0.0
2018-Aug-11 02:00N 51°57' E 004°03'0 0.0
2018-Aug-11 01:30N 51°57' E 004°03'0 0.0
2018-Aug-11 01:00N 51°57' E 004°03'0 0.0
2018-Aug-11 00:30N 51°57' E 004°03'0 0.0
2018-Aug-11 00:00N 51°57' E 004°03'0 0.0
2018-Aug-10 23:30N 51°57' E 004°03'0 0.0
2018-Aug-10 23:00N 51°57' E 004°03'0 0.0
2018-Aug-10 22:30N 51°57' E 004°03'0 0.0
2018-Aug-10 22:00N 51°57' E 004°03'0 0.0
2018-Aug-10 21:30N 51°57' E 004°03'0 0.0
2018-Aug-10 21:00N 51°57' E 004°03'0 0.0
2018-Aug-10 20:30N 51°57' E 004°03'0 0.0
2018-Aug-10 20:00N 51°57' E 004°03'0 0.0
2018-Aug-10 19:30N 51°57' E 004°03'0 0.0
2018-Aug-10 19:00N 51°57' E 004°03'0 0.0
2018-Aug-10 18:30N 51°57' E 004°03'0 0.0
2018-Aug-10 18:00N 51°57' E 004°03'0 0.0
2018-Aug-10 17:30N 51°57' E 004°03'1 1.4
2018-Aug-10 17:00N 51°57' E 004°04'1 1.9
2018-Aug-10 16:30N 51°57' E 004°05'2 3.9
2018-Aug-10 16:00N 51°59' E 004°03'5 9.0
2018-Aug-10 15:30N 52°00' E 003°56'5 9.5
2018-Aug-10 15:00N 52°01' E 003°49'4 8.2
2018-Aug-10 14:31N 52°01' E 003°42'4 8.2
2018-Aug-10 14:01N 52°04' E 003°37'5 9.1
2018-Aug-10 13:31N 52°07' E 003°32'6 6.3
2018-Aug-10 12:30N 52°08' E 003°22'3 6.3
2018-Aug-10 11:59N 52°09' E 003°17'1 2.9
2018-Aug-10 11:29N 52°08' E 003°15'0 0.2
2018-Aug-10 10:52N 52°08' E 003°15'0 0.1
2018-Aug-10 10:28N 52°08' E 003°15'0 0.0
2018-Aug-10 05:37N 52°08' E 003°15'0 0.1
2018-Aug-10 05:16N 52°08' E 003°15'0 0.0
2018-Aug-10 04:49N 52°08' E 003°15'0 0.1
2018-Aug-10 03:40N 52°08' E 003°15'0 0.0
2018-Aug-10 03:13N 52°08' E 003°15'0 0.0
2018-Aug-10 02:52N 52°08' E 003°15'0 0.0
2018-Aug-10 01:40N 52°08' E 003°15'0 0.0
2018-Aug-10 01:07N 52°08' E 003°15'0 0.1
2018-Aug-10 00:46N 52°08' E 003°15'0 0.1
2018-Aug-09 23:19N 52°08' E 003°15'0 0.2
2018-Aug-09 22:52N 52°08' E 003°15'0 0.3
2018-Aug-09 22:29N 52°08' E 003°15'1 2.4
2018-Aug-09 22:00N 52°07' E 003°15'1 1.8
2018-Aug-09 21:26N 52°08' E 003°15'1 0.9
2018-Aug-09 20:31N 52°07' E 003°15'0 4.1
2018-Aug-09 20:30N 52°07' E 003°15'1 1.7
2018-Aug-09 20:00N 52°07' E 003°14'0 0.7
2018-Aug-09 19:29N 52°08' E 003°14'1 2.0
2018-Aug-09 18:59N 52°07' E 003°14'0 0.5
2018-Aug-09 18:30N 52°07' E 003°14'2 4.2
2018-Aug-09 17:57N 52°06' E 003°10'2 4.4
2018-Aug-09 17:28N 52°05' E 003°07'3 6.2
2018-Aug-09 16:59N 52°04' E 003°03'3 5.8
2018-Aug-09 16:25N 52°01' E 003°01'27 5.9
2018-Aug-09 11:50N 51°41' E 002°30'2 6.7
2018-Aug-09 11:28N 51°40' E 002°27'3 6.8
2018-Aug-09 11:00N 51°37' E 002°24'3 6.9
2018-Aug-09 10:30N 51°34' E 002°21'3 6.8
2018-Aug-09 10:00N 51°32' E 002°18'4 8.8
2018-Aug-09 09:30N 51°28' E 002°13'714.4
2018-Aug-09 09:00N 51°23' E 002°05'714.5
2018-Aug-09 08:30N 51°18' E 001°57'714.4
2018-Aug-09 08:00N 51°13' E 001°49'714.0
2018-Aug-09 07:31N 51°07' E 001°42'713.2
2018-Aug-09 07:01N 51°02' E 001°36'713.1
2018-Aug-09 06:31N 50°57' E 001°28'713.0
2018-Aug-09 06:00N 50°51' E 001°24'612.5
2018-Aug-09 05:31N 50°45' E 001°22'612.6
2018-Aug-09 05:00N 50°40' E 001°16'713.2
2018-Aug-09 04:30N 50°36' E 001°08'713.4
2018-Aug-09 04:00N 50°32' E 000°60'713.4
2018-Aug-09 03:30N 50°28' E 000°51'713.3
2018-Aug-09 03:01N 50°23' E 000°44'713.3
2018-Aug-09 02:31N 50°18' E 000°37'913.2
2018-Aug-09 01:49N 50°11' E 000°28'813.0
2018-Aug-09 01:14N 50°05' E 000°21'312.9
2018-Aug-09 00:59N 50°02' E 000°18'612.8
2018-Aug-09 00:30N 49°57' E 000°13'612.9
2018-Aug-09 00:00N 49°52' E 000°07'713.0
2018-Aug-08 23:30N 49°47' E 000°01'713.4
2018-Aug-08 23:00N 49°41' W 000°04'714.2
2018-Aug-08 22:30N 49°34' W 000°03'510.0
2018-Aug-08 22:00N 49°30' E 000°02'5 9.3
2018-Aug-08 21:31N 49°28' E 000°09'1 0.9
2018-Aug-08 20:58N 49°28' E 000°09'0 0.0
2018-Aug-08 20:28N 49°28' E 000°09'0 0.0
2018-Aug-08 19:58N 49°28' E 000°09'0 0.0
2018-Aug-08 19:28N 49°28' E 000°09'0 0.0
2018-Aug-08 18:58N 49°28' E 000°09'0 0.0
2018-Aug-08 18:28N 49°28' E 000°09'0 0.0
2018-Aug-08 17:58N 49°28' E 000°09'0 0.0
2018-Aug-08 17:28N 49°28' E 000°09'0 0.0
2018-Aug-08 16:58N 49°28' E 000°09'0 0.0
2018-Aug-08 16:28N 49°28' E 000°09'0 0.0
2018-Aug-08 15:58N 49°28' E 000°09'0 0.0
2018-Aug-08 15:28N 49°28' E 000°09'0 0.0
2018-Aug-08 14:58N 49°28' E 000°09'0 0.0
2018-Aug-08 14:28N 49°28' E 000°09'0 0.0
2018-Aug-08 13:58N 49°28' E 000°09'0 0.0
2018-Aug-08 13:28N 49°28' E 000°09'0 0.0
2018-Aug-08 12:58N 49°28' E 000°09'0 0.0
2018-Aug-08 12:28N 49°28' E 000°09'0 0.0
2018-Aug-08 11:58N 49°28' E 000°09'0 0.0
2018-Aug-08 11:28N 49°28' E 000°09'0 0.0
2018-Aug-08 10:58N 49°28' E 000°09'0 0.0
2018-Aug-08 10:28N 49°28' E 000°09'0 0.0
2018-Aug-08 09:58N 49°28' E 000°09'0 0.0
2018-Aug-08 09:28N 49°28' E 000°09'0 0.0
2018-Aug-08 08:58N 49°28' E 000°09'0 0.0
2018-Aug-08 08:28N 49°28' E 000°09'0 0.0
2018-Aug-08 07:58N 49°28' E 000°09'0 0.0
2018-Aug-08 07:28N 49°28' E 000°09'0 0.0
2018-Aug-08 06:58N 49°28' E 000°09'0 0.0
2018-Aug-08 06:28N 49°28' E 000°09'0 0.0
2018-Aug-08 05:58N 49°28' E 000°09'0 0.0
2018-Aug-08 05:28N 49°28' E 000°09'0 0.0
2018-Aug-08 04:58N 49°28' E 000°09'0 0.0
2018-Aug-08 04:28N 49°28' E 000°09'0 0.0
2018-Aug-08 03:58N 49°28' E 000°09'0 0.0
2018-Aug-08 03:28N 49°28' E 000°09'0 0.0
2018-Aug-08 02:58N 49°28' E 000°09'0 0.0
2018-Aug-08 02:28N 49°28' E 000°09'0 0.0
2018-Aug-08 01:58N 49°28' E 000°09'0 0.0
2018-Aug-08 01:28N 49°28' E 000°09'0 0.0
2018-Aug-08 00:58N 49°28' E 000°09'0 0.0
2018-Aug-08 00:28N 49°28' E 000°09'0 0.0
2018-Aug-07 23:58N 49°28' E 000°09'0 0.0
2018-Aug-07 23:28N 49°28' E 000°09'0 0.0
2018-Aug-07 22:58N 49°28' E 000°09'0 0.0
2018-Aug-07 22:28N 49°28' E 000°09'0 0.0
2018-Aug-07 21:58N 49°28' E 000°09'0 0.0
2018-Aug-07 21:28N 49°28' E 000°09'0 0.0
2018-Aug-07 20:58N 49°28' E 000°09'0 0.0
2018-Aug-07 20:28N 49°28' E 000°09'0 0.0
2018-Aug-07 19:58N 49°28' E 000°09'0 0.1
2018-Aug-07 19:30N 49°28' E 000°09'1 2.4
2018-Aug-07 19:00N 49°28' E 000°08'611.1
2018-Aug-07 18:30N 49°30' W 000°00'510.8
2018-Aug-07 18:00N 49°32' W 000°08'510.4
2018-Aug-07 17:30N 49°34' W 000°16'713.6
2018-Aug-07 17:00N 49°40' W 000°22'917.4
2018-Aug-07 16:31N 49°48' W 000°26'917.6
2018-Aug-07 16:01N 49°56' W 000°31'917.2
2018-Aug-07 15:31N 50°04' W 000°36'714.9
2018-Aug-07 15:00N 50°11' W 000°41'715.0
2018-Aug-07 14:31N 50°18' W 000°45'714.6
2018-Aug-07 14:01N 50°24' W 000°50'714.6
2018-Aug-07 13:30N 50°31' W 000°54'714.0
2018-Aug-07 13:01N 50°38' W 000°55'510.8
2018-Aug-07 12:30N 50°43' W 000°60'713.3
2018-Aug-07 12:00N 50°46' W 001°09'612.5
2018-Aug-07 11:30N 50°47' W 001°19'4 8.2
2018-Aug-07 11:00N 50°51' W 001°20'5 9.3
2018-Aug-07 10:31N 50°54' W 001°25'1 2.7
2018-Aug-07 10:00N 50°54' W 001°27'0 0.4
2018-Aug-07 09:10N 50°55' W 001°28'0 0.0
2018-Aug-07 08:04N 50°55' W 001°28'0 0.1
2018-Aug-07 07:58N 50°55' W 001°28'0 0.0
2018-Aug-07 07:28N 50°55' W 001°28'0 0.0
2018-Aug-07 06:58N 50°55' W 001°28'0 0.0
2018-Aug-07 06:25N 50°55' W 001°28'0 0.0
2018-Aug-07 05:01N 50°55' W 001°28'0 0.0
2018-Aug-07 04:37N 50°55' W 001°28'0 0.0
2018-Aug-07 04:28N 50°55' W 001°28'0 0.0
2018-Aug-07 03:58N 50°55' W 001°28'0 0.0
2018-Aug-07 03:19N 50°55' W 001°28'0 0.0
2018-Aug-07 02:58N 50°55' W 001°28'0 0.0
2018-Aug-07 02:25N 50°55' W 001°28'0 0.0
2018-Aug-07 01:55N 50°55' W 001°28'0 0.0
2018-Aug-07 00:49N 50°55' W 001°28'0 0.0
2018-Aug-07 00:07N 50°55' W 001°28'0 0.0
2018-Aug-06 23:49N 50°55' W 001°28'0 0.0
2018-Aug-06 23:28N 50°55' W 001°28'0 0.0
2018-Aug-06 22:58N 50°55' W 001°28'0 0.0
2018-Aug-06 22:28N 50°55' W 001°28'0 0.0
2018-Aug-06 21:40N 50°55' W 001°28'0 0.0
2018-Aug-06 21:28N 50°55' W 001°28'0 0.0
2018-Aug-06 21:00N 50°55' W 001°28'2 3.8
2018-Aug-06 20:31N 50°54' W 001°25'3 6.7
2018-Aug-06 20:00N 50°51' W 001°21'4 8.1
2018-Aug-06 19:30N 50°48' W 001°18'510.3
2018-Aug-06 19:00N 50°46' W 001°11'816.8
2018-Aug-06 18:31N 50°42' W 000°58'5 9.6
2018-Aug-06 18:00N 50°38' W 000°56'510.3
2018-Aug-06 17:30N 50°33' W 001°00'612.2
2018-Aug-06 17:00N 50°29' W 001°06'510.8
2018-Aug-06 16:30N 50°26' W 001°14'1 1.7
2018-Aug-06 16:00N 50°26' W 001°15'1 2.1
2018-Aug-06 15:30N 50°27' W 001°17'1 2.5
2018-Aug-06 15:00N 50°27' W 001°19'1 2.6
2018-Aug-06 14:30N 50°27' W 001°21'1 2.5
2018-Aug-06 14:01N 50°26' W 001°23'1 2.9
2018-Aug-06 13:30N 50°26' W 001°25'2 4.0
2018-Aug-06 13:00N 50°25' W 001°28'4 7.6
2018-Aug-06 12:30N 50°24' W 001°34'4 7.4
2018-Aug-06 12:00N 50°24' W 001°39'4 7.0
2018-Aug-06 11:30N 50°23' W 001°45'4 7.9
2018-Aug-06 11:00N 50°22' W 001°51'713.6
2018-Aug-06 10:30N 50°20' W 002°01'815.6
2018-Aug-06 10:00N 50°18' W 002°13'816.0
2018-Aug-06 09:30N 50°16' W 002°25'816.0
2018-Aug-06 09:01N 50°14' W 002°37'816.0
2018-Aug-06 08:31N 50°12' W 002°49'816.0
2018-Aug-06 08:01N 50°09' W 003°01'816.2
2018-Aug-06 07:31N 50°07' W 003°13'816.2
2018-Aug-06 07:00N 50°05' W 003°25'815.6
2018-Aug-06 06:31N 50°03' W 003°37'815.2
2018-Aug-06 06:00N 50°01' W 003°48'815.5
2018-Aug-06 05:31N 49°59' W 004°00'815.5
2018-Aug-06 05:00N 49°57' W 004°12'815.6
2018-Aug-06 04:31N 49°55' W 004°23'815.6
2018-Aug-06 04:01N 49°53' W 004°35'815.4
2018-Aug-06 03:30N 49°51' W 004°47'815.4
2018-Aug-06 03:00N 49°48' W 004°58'815.4
2018-Aug-06 02:31N 49°47' W 005°09'815.8
2018-Aug-06 02:00N 49°44' W 005°21'815.9
2018-Aug-06 01:30N 49°43' W 005°33'815.9
2018-Aug-06 01:01N 49°41' W 005°45'915.9
2018-Aug-06 00:28N 49°38' W 005°58'715.8
2018-Aug-06 00:01N 49°38' W 006°09'816.2
2018-Aug-05 23:30N 49°38' W 006°22'1016.0
2018-Aug-05 22:53N 49°38' W 006°37'616.5
2018-Aug-05 22:31N 49°38' W 006°46'916.7
2018-Aug-05 21:57N 49°39' W 007°01'1216.7
2018-Aug-05 21:15N 49°40' W 007°19'716.8
2018-Aug-05 20:49N 49°41' W 007°30'7117.0
2018-Aug-05 16:38N 49°46' W 009°19'217.5
2018-Aug-05 16:30N 49°46' W 009°23'816.4
2018-Aug-05 16:00N 49°47' W 009°36'917.4
2018-Aug-05 15:29N 49°47' W 009°49'1019.8
2018-Aug-05 15:00N 49°48' W 010°05'1619.4
2018-Aug-05 14:10N 49°49' W 010°30'1619.5
2018-Aug-05 13:20N 49°50' W 010°55'  

Dump ship's entire track history